Time;durP1;ratioP1;P1;durP2;ratioP2;P2;SDS_P1;SDS_P2;PMS_P1;PMS_P2;Temp;Humidity;BMP_temperature;BMP_pressure;BME280_temperature;BME280_humidity;BME280_pressure;Samples;Min_cycle;Max_cycle;Signal;HPM_P1;HPM_P2
2022/02/04 00:09:02;;;;;;;7.53;3.92;;;6.80;99.90;;;;;;5087832;28;20040;-75
2022/02/04 00:20:22;;;;;;;7.28;4.15;;;6.70;99.90;;;;;;5064889;28;20044;-75
2022/02/04 00:23:14;;;;;;;9.73;4.03;;;6.70;99.90;;;;;;5091481;28;20049;-75
2022/02/04 00:28:45;;;;;;;8.27;4.25;;;6.60;99.90;;;;;;5091312;28;20052;-73
2022/02/04 00:31:24;;;;;;;9.75;4.18;;;6.50;99.90;;;;;;5090999;28;20091;-74
2022/02/04 00:33:56;;;;;;;7.57;3.97;;;6.50;99.90;;;;;;5090820;28;20052;-75
2022/02/04 00:36:28;;;;;;;9.43;3.97;;;6.50;99.90;;;;;;5091188;28;20138;-75
2022/02/04 00:38:56;;;;;;;8.77;4.15;;;6.40;99.90;;;;;;5091301;28;20520;-75
2022/02/04 00:41:26;;;;;;;6.53;3.60;;;6.40;99.90;;;;;;5090975;28;20048;-74
2022/02/04 00:43:57;;;;;;;8.65;3.72;;;6.40;99.90;;;;;;5090495;28;20052;-74
2022/02/04 00:46:28;;;;;;;7.68;3.53;;;6.40;99.90;;;;;;5090775;28;20111;-75
2022/02/04 00:49:02;;;;;;;7.70;3.65;;;6.30;99.90;;;;;;5091613;28;20408;-75
2022/02/04 00:51:34;;;;;;;7.13;3.50;;;6.40;99.90;;;;;;5090473;28;20063;-74
2022/02/04 00:54:14;;;;;;;8.88;3.88;;;6.30;99.90;;;;;;5090890;28;20443;-74
2022/02/04 00:56:59;;;;;;;8.07;3.65;;;6.30;99.90;;;;;;5091092;28;20075;-74
2022/02/04 01:13:22;;;;;;;11.40;4.95;;;6.10;99.90;;;;;;5077495;28;20106;-75
2022/02/04 01:26:49;;;;;;;12.65;6.30;;;6.00;99.90;;;;;;5076806;28;20111;-73
2022/02/04 01:29:16;;;;;;;14.93;6.10;;;6.00;99.90;;;;;;5076964;28;20083;-75
2022/02/04 01:31:45;;;;;;;13.55;7.35;;;6.00;99.90;;;;;;5076999;28;20507;-74
2022/02/04 01:34:12;;;;;;;13.15;6.78;;;6.00;99.90;;;;;;5076632;28;20059;-78
2022/02/04 01:36:39;;;;;;;13.25;7.32;;;5.90;99.90;;;;;;5076822;28;20512;-74
2022/02/04 01:39:06;;;;;;;14.32;7.47;;;5.90;99.90;;;;;;5076394;28;20483;-74
2022/02/04 01:41:33;;;;;;;15.75;7.75;;;5.90;99.90;;;;;;5076120;28;20044;-76
2022/02/04 01:44:00;;;;;;;13.95;7.13;;;5.90;99.90;;;;;;5076367;28;20098;-75
2022/02/04 01:46:27;;;;;;;14.63;7.75;;;5.90;99.90;;;;;;5076490;28;20055;-75
2022/02/04 01:48:55;;;;;;;17.00;8.25;;;5.80;99.90;;;;;;5076016;28;20135;-75
2022/02/04 01:51:22;;;;;;;16.90;8.65;;;5.80;99.90;;;;;;5076223;28;20108;-76
2022/02/04 01:53:49;;;;;;;16.27;8.65;;;5.90;99.90;;;;;;5075370;28;20052;-75
2022/02/04 01:56:16;;;;;;;16.13;8.77;;;5.80;99.90;;;;;;5076322;28;20128;-80
2022/02/04 01:58:43;;;;;;;16.58;8.48;;;5.80;99.90;;;;;;5075842;28;20040;-75
2022/02/04 02:01:11;;;;;;;18.52;9.35;;;5.80;99.90;;;;;;5075854;28;20048;-73
2022/02/04 02:03:37;;;;;;;18.02;9.15;;;5.80;99.90;;;;;;5075869;28;20138;-73
2022/02/04 02:06:10;;;;;;;19.20;9.13;;;5.80;99.90;;;;;;5075614;28;20143;-80
2022/02/04 02:08:40;;;;;;;18.40;9.07;;;5.70;99.90;;;;;;5076007;28;20056;-75
2022/02/04 02:11:08;;;;;;;15.43;8.13;;;5.70;99.90;;;;;;5075697;28;20048;-75
2022/02/04 02:13:43;;;;;;;16.52;8.60;;;5.70;99.90;;;;;;5076167;28;20511;-76
2022/02/04 02:16:24;;;;;;;15.82;8.57;;;5.60;99.90;;;;;;5075381;28;20060;-75
2022/02/04 02:33:24;;;;;;;15.50;8.30;;;5.70;99.90;;;;;;5075061;28;20115;-75
2022/02/04 02:36:10;;;;;;;15.48;7.45;;;5.70;99.90;;;;;;5075041;28;20055;-74
2022/02/04 02:44:31;;;;;;;12.50;7.32;;;5.70;99.90;;;;;;5074934;28;20040;-73
2022/02/04 02:47:23;;;;;;;16.27;8.48;;;5.70;99.90;;;;;;5075604;28;20571;-75
2022/02/04 02:52:49;;;;;;;14.50;7.55;;;5.70;99.90;;;;;;5075296;28;20051;-76
2022/02/04 02:55:29;;;;;;;15.25;8.40;;;5.80;99.90;;;;;;5074578;28;20459;-78
2022/02/04 03:00:52;;;;;;;14.65;7.70;;;5.80;99.90;;;;;;5074542;28;20048;-75
2022/02/04 03:03:21;;;;;;;11.55;5.65;;;5.80;99.90;;;;;;5074932;28;20573;-75
2022/02/04 03:05:48;;;;;;;13.30;6.70;;;5.80;99.90;;;;;;5074854;28;20054;-74
2022/02/04 03:08:15;;;;;;;14.02;7.63;;;5.80;99.90;;;;;;5074414;28;20131;-75
2022/02/04 03:10:43;;;;;;;14.95;7.53;;;5.80;99.90;;;;;;5074740;28;20502;-74
2022/02/04 03:13:10;;;;;;;15.63;7.82;;;5.80;99.90;;;;;;5074616;28;20127;-74
2022/02/04 03:15:38;;;;;;;14.95;7.50;;;5.80;99.90;;;;;;5074873;28;20135;-75
2022/02/04 03:18:09;;;;;;;14.55;6.80;;;5.80;99.90;;;;;;5074784;28;20068;-75
2022/02/04 03:20:45;;;;;;;13.57;7.47;;;5.80;99.90;;;;;;5075062;28;20048;-75
2022/02/04 03:23:12;;;;;;;15.05;7.45;;;5.80;99.90;;;;;;5074753;28;20060;-75
2022/02/04 03:25:44;;;;;;;13.18;7.32;;;5.70;99.90;;;;;;5074493;28;20074;-75
2022/02/04 03:28:17;;;;;;;12.60;7.10;;;5.70;99.90;;;;;;5074358;28;20056;-75
2022/02/04 03:30:46;;;;;;;12.85;6.93;;;5.70;99.90;;;;;;5074264;28;20098;-75
2022/02/04 03:33:13;;;;;;;14.45;7.43;;;5.70;99.90;;;;;;5074006;28;20074;-74
2022/02/04 03:35:40;;;;;;;13.88;7.05;;;5.70;99.90;;;;;;5074050;28;20088;-76
2022/02/04 03:38:07;;;;;;;13.02;7.10;;;5.70;99.90;;;;;;5073674;28;20135;-75
2022/02/04 03:40:33;;;;;;;15.82;8.15;;;5.70;99.90;;;;;;5074003;28;20516;-75
2022/02/04 03:43:00;;;;;;;14.13;7.63;;;5.80;99.90;;;;;;5073999;28;20084;-75
2022/02/04 03:45:29;;;;;;;12.38;6.78;;;5.70;99.90;;;;;;5073058;28;20509;-75
2022/02/04 03:47:55;;;;;;;13.85;7.28;;;5.70;99.90;;;;;;5073535;28;20131;-75
2022/02/04 03:50:22;;;;;;;15.57;7.60;;;5.80;99.90;;;;;;5073353;28;20152;-75
2022/02/04 03:52:49;;;;;;;13.40;7.85;;;5.80;99.90;;;;;;5072968;28;20124;-75
2022/02/04 03:55:16;;;;;;;15.93;8.23;;;5.70;99.90;;;;;;5072814;28;20476;-75
2022/02/04 03:57:43;;;;;;;14.90;7.70;;;5.70;99.90;;;;;;5073174;28;20071;-75
2022/02/04 04:00:13;;;;;;;15.63;7.90;;;5.70;99.90;;;;;;5072837;28;20131;-75
2022/02/04 04:02:42;;;;;;;15.30;8.23;;;5.70;99.90;;;;;;5073039;28;20079;-75
2022/02/04 04:05:11;;;;;;;16.13;8.38;;;5.70;99.90;;;;;;5073172;28;20075;-75
2022/02/04 04:07:43;;;;;;;13.80;7.45;;;5.70;99.90;;;;;;5073827;28;20080;-75
2022/02/04 04:10:15;;;;;;;16.63;8.52;;;5.70;99.90;;;;;;5085923;22;20044;-68
2022/02/04 04:12:42;;;;;;;15.10;8.30;;;5.60;99.90;;;;;;5071663;28;20057;-69
2022/02/04 04:15:10;;;;;;;16.25;8.38;;;5.60;99.90;;;;;;5070830;28;20135;-69
2022/02/04 04:17:41;;;;;;;15.38;7.50;;;5.60;99.90;;;;;;5071514;28;20139;-69
2022/02/04 04:20:12;;;;;;;16.17;8.40;;;5.60;99.90;;;;;;5071531;28;20063;-69
2022/02/04 04:22:40;;;;;;;14.70;7.88;;;5.60;99.90;;;;;;5071257;28;20131;-69
2022/02/04 04:25:09;;;;;;;15.77;7.78;;;5.60;99.90;;;;;;5071016;28;20535;-69
2022/02/04 04:27:36;;;;;;;14.60;7.47;;;5.60;99.90;;;;;;5071176;28;20125;-68
2022/02/04 04:30:05;;;;;;;14.45;6.95;;;5.70;99.90;;;;;;5071505;28;20175;-69
2022/02/04 04:32:32;;;;;;;14.90;8.25;;;5.70;99.90;;;;;;5071261;28;20049;-69
2022/02/04 04:34:59;;;;;;;15.63;7.45;;;5.70;99.90;;;;;;5070808;28;20122;-69
2022/02/04 04:37:27;;;;;;;16.52;7.80;;;5.70;99.90;;;;;;5071237;28;20498;-69
2022/02/04 04:40:07;;;;;;;15.07;7.22;;;5.70;99.90;;;;;;5071740;28;20535;-69
2022/02/04 04:42:50;;;;;;;14.63;7.60;;;5.60;99.90;;;;;;5074862;28;20500;-69
2022/02/04 05:26:33;;;;;;;13.15;5.57;;;5.60;99.90;;;;;;5073888;28;20087;-69
2022/02/04 05:29:05;;;;;;;11.02;5.32;;;5.50;99.90;;;;;;5073856;28;20059;-69
2022/02/04 05:31:32;;;;;;;10.75;5.32;;;5.50;99.90;;;;;;5074171;28;20063;-69
2022/02/04 05:33:59;;;;;;;10.50;5.35;;;5.40;99.90;;;;;;5073784;28;20494;-69
2022/02/04 05:36:26;;;;;;;13.63;5.68;;;5.40;99.90;;;;;;5073640;28;20523;-69
2022/02/04 05:38:54;;;;;;;12.07;5.78;;;5.40;99.90;;;;;;5074054;28;20052;-69
2022/02/04 05:41:28;;;;;;;13.27;6.28;;;5.30;99.90;;;;;;5073939;28;20135;-69
2022/02/04 05:43:57;;;;;;;12.70;5.63;;;5.30;99.90;;;;;;5073923;28;20059;-69
2022/02/04 05:46:29;;;;;;;14.02;5.95;;;5.30;99.90;;;;;;5073524;28;20500;-69
2022/02/04 05:48:57;;;;;;;13.02;6.47;;;5.30;99.90;;;;;;5073826;28;20062;-69
2022/02/04 05:51:36;;;;;;;13.73;6.57;;;5.30;99.90;;;;;;5073564;28;20052;-69
2022/02/04 05:54:10;;;;;;;13.65;6.35;;;5.30;99.90;;;;;;5073435;28;20056;-69
2022/02/04 05:56:46;;;;;;;11.60;5.90;;;5.30;99.90;;;;;;5073429;28;20057;-69
2022/02/04 05:59:22;;;;;;;12.38;6.22;;;5.30;99.90;;;;;;5073994;28;20494;-69
2022/02/04 06:01:58;;;;;;;12.48;5.93;;;5.30;99.90;;;;;;5073847;28;20441;-69
2022/02/04 06:04:36;;;;;;;13.32;6.30;;;5.30;99.90;;;;;;5073503;28;20048;-69
2022/02/04 06:07:16;;;;;;;11.90;5.80;;;5.30;99.90;;;;;;5073886;28;20070;-69
2022/02/04 06:23:25;;;;;;;14.57;5.93;;;5.20;99.90;;;;;;5072855;28;20197;-69
2022/02/04 06:25:52;;;;;;;13.73;6.18;;;5.10;99.90;;;;;;5072672;28;20132;-69
2022/02/04 06:28:21;;;;;;;13.77;6.20;;;5.10;99.90;;;;;;5073107;28;20044;-69
2022/02/04 06:30:48;;;;;;;12.20;5.82;;;5.20;99.90;;;;;;5073877;28;20135;-69
2022/02/04 06:33:15;;;;;;;13.00;6.38;;;5.10;99.90;;;;;;5073760;28;20094;-69
2022/02/04 06:35:42;;;;;;;12.52;6.72;;;5.20;99.90;;;;;;5073026;28;20102;-69
2022/02/04 06:38:10;;;;;;;13.40;6.10;;;5.10;99.90;;;;;;5073757;28;20560;-70
2022/02/04 06:40:37;;;;;;;13.98;6.50;;;5.10;99.90;;;;;;5073416;28;20476;-69
2022/02/04 06:43:04;;;;;;;11.50;6.15;;;5.10;99.90;;;;;;5072658;28;20486;-69
2022/02/04 06:45:32;;;;;;;13.98;7.10;;;5.10;99.90;;;;;;5072207;28;20143;-69
2022/02/04 06:47:59;;;;;;;13.20;6.65;;;5.20;99.90;;;;;;5072583;28;20136;-69
2022/02/04 06:50:26;;;;;;;14.75;6.80;;;5.20;99.90;;;;;;5072380;28;20151;-69
2022/02/04 06:52:54;;;;;;;15.50;7.60;;;5.20;99.90;;;;;;5072293;28;20136;-69
2022/02/04 06:55:21;;;;;;;14.95;7.30;;;5.20;99.90;;;;;;5072010;28;20049;-70
2022/02/04 06:57:49;;;;;;;14.95;6.68;;;5.20;99.90;;;;;;5072192;28;20131;-70
2022/02/04 07:00:18;;;;;;;15.13;7.18;;;5.20;99.90;;;;;;5072586;28;20091;-69
2022/02/04 07:02:47;;;;;;;13.68;6.68;;;5.20;99.90;;;;;;5071710;28;20044;-69
2022/02/04 07:05:14;;;;;;;14.25;7.15;;;5.20;99.90;;;;;;5072282;28;20053;-69
2022/02/04 07:07:48;;;;;;;13.90;7.00;;;5.10;99.90;;;;;;5072469;28;20055;-69
2022/02/04 07:10:21;;;;;;;14.88;7.15;;;5.10;99.90;;;;;;5072423;28;20500;-70
2022/02/04 07:12:55;;;;;;;19.77;7.97;;;5.20;99.90;;;;;;5072148;28;20497;-70
2022/02/04 07:20:48;;;;;;;16.20;8.18;;;5.20;99.90;;;;;;5072170;28;20140;-70
2022/02/04 07:23:15;;;;;;;17.92;8.23;;;5.20;99.90;;;;;;5072333;28;20489;-70
2022/02/04 07:25:42;;;;;;;15.60;7.95;;;5.20;99.90;;;;;;5072072;28;20092;-69
2022/02/04 07:28:09;;;;;;;12.20;6.18;;;5.20;99.90;;;;;;5072018;28;20128;-69
2022/02/04 07:30:36;;;;;;;13.52;6.82;;;5.20;99.90;;;;;;5071830;28;20083;-70
2022/02/04 07:33:12;;;;;;;14.07;7.15;;;5.20;99.90;;;;;;5072499;28;20060;-69
2022/02/04 07:38:48;;;;;;;15.40;7.60;;;5.20;99.90;;;;;;5071842;28;20054;-70
2022/02/04 07:41:15;;;;;;;14.00;6.90;;;5.30;99.90;;;;;;5072010;28;20110;-69
2022/02/04 07:43:42;;;;;;;14.88;6.38;;;5.30;99.90;;;;;;5071667;28;20049;-69
2022/02/04 07:46:12;;;;;;;11.68;5.75;;;5.30;99.90;;;;;;5071743;28;20084;-69
2022/02/04 07:48:40;;;;;;;14.68;6.07;;;5.40;99.90;;;;;;5072023;28;20056;-69
2022/02/04 07:51:08;;;;;;;15.15;6.65;;;5.40;99.90;;;;;;5071482;28;20147;-69
2022/02/04 07:53:36;;;;;;;11.30;5.75;;;5.40;99.90;;;;;;5071558;28;20075;-69
2022/02/04 07:56:04;;;;;;;11.30;5.78;;;5.40;99.90;;;;;;5071626;28;20057;-69
2022/02/04 07:58:31;;;;;;;13.82;6.78;;;5.40;99.90;;;;;;5071895;28;20052;-69
2022/02/04 08:00:59;;;;;;;15.02;6.00;;;5.40;99.90;;;;;;5071839;28;20131;-69
2022/02/04 08:03:38;;;;;;;12.20;6.13;;;5.40;99.90;;;;;;5071648;28;20092;-69
2022/02/04 08:06:10;;;;;;;12.27;5.43;;;5.40;99.90;;;;;;5071782;28;20044;-69
2022/02/04 08:08:51;;;;;;;13.20;5.93;;;5.40;99.90;;;;;;5072211;28;20052;-69
2022/02/04 08:11:24;;;;;;;15.13;5.65;;;5.40;99.90;;;;;;5071444;28;20057;-69
2022/02/04 08:17:16;;;;;;;11.38;4.47;;;5.60;99.90;;;;;;5074999;28;20049;-69
2022/02/04 08:22:54;;;;;;;8.90;4.38;;;5.70;99.90;;;;;;5075574;28;20467;-69
2022/02/04 08:25:56;;;;;;;8.00;3.30;;;5.80;99.90;;;;;;5075356;28;20060;-69
2022/02/04 08:34:15;;;;;;;8.63;3.55;;;5.90;99.90;;;;;;5075118;28;20123;-69
2022/02/04 08:37:10;;;;;;;9.50;3.55;;;6.00;99.90;;;;;;5074866;28;20052;-69
2022/02/04 08:48:26;;;;;;;9.85;3.88;;;6.20;99.90;;;;;;5074819;28;20568;-69
2022/02/04 08:51:07;;;;;;;12.90;4.63;;;6.20;99.90;;;;;;5074818;28;20068;-69
2022/02/04 08:56:38;;;;;;;8.60;3.30;;;6.40;99.90;;;;;;5026372;28;20048;-68
2022/02/04 08:59:14;;;;;;;6.30;2.50;;;6.30;99.90;;;;;;5074565;28;20103;-69
2022/02/04 09:01:47;;;;;;;6.40;2.63;;;6.10;99.90;;;;;;5075009;28;20056;-69
2022/02/04 09:04:17;;;;;;;6.57;3.22;;;6.20;99.90;;;;;;5074816;28;20056;-69
2022/02/04 09:06:50;;;;;;;7.43;3.42;;;6.10;99.90;;;;;;5074416;28;20733;-69
2022/02/04 09:09:29;;;;;;;6.50;2.72;;;6.20;99.90;;;;;;5074752;28;20076;-69
2022/02/04 09:12:06;;;;;;;7.95;2.78;;;6.20;99.90;;;;;;5074889;28;20139;-69
2022/02/04 09:17:49;;;;;;;6.65;3.58;;;6.40;99.90;;;;;;5075201;28;20064;-69
2022/02/04 09:20:27;;;;;;;8.02;2.95;;;6.50;99.90;;;;;;5075048;28;20061;-69
2022/02/04 09:22:54;;;;;;;7.78;3.10;;;6.40;99.90;;;;;;5080044;28;20464;-69
2022/02/04 09:25:22;;;;;;;7.75;3.33;;;6.50;99.90;;;;;;5083824;28;20045;-69
2022/02/04 09:27:49;;;;;;;6.07;2.83;;;6.50;99.90;;;;;;5079528;28;20090;-69
2022/02/04 09:30:22;;;;;;;7.22;2.92;;;6.30;99.90;;;;;;5074464;28;20135;-69
2022/02/04 09:32:50;;;;;;;7.25;3.00;;;6.20;99.90;;;;;;5074440;28;20091;-69
2022/02/04 09:35:19;;;;;;;8.23;3.10;;;6.30;99.90;;;;;;5074055;28;20132;-69
2022/02/04 09:37:48;;;;;;;6.40;2.65;;;6.30;99.90;;;;;;5074117;28;20059;-69
2022/02/04 09:40:16;;;;;;;8.00;3.25;;;6.30;99.90;;;;;;5074217;28;20060;-69
2022/02/04 09:42:44;;;;;;;9.23;3.67;;;6.30;99.90;;;;;;5073712;28;20508;-69
2022/02/04 09:45:13;;;;;;;7.60;3.78;;;6.40;99.90;;;;;;5073601;28;20128;-69
2022/02/04 09:47:46;;;;;;;6.97;3.20;;;6.60;99.90;;;;;;5074045;28;20132;-69
2022/02/04 09:50:18;;;;;;;7.20;2.30;;;6.60;99.90;;;;;;5073807;28;20472;-69
2022/02/04 10:12:58;;;;;;;4.53;2.17;;;6.60;99.90;;;;;;5074419;28;20063;-75
2022/02/04 10:15:34;;;;;;;5.80;2.60;;;6.50;99.90;;;;;;5076513;28;20135;-75
2022/02/04 10:18:04;;;;;;;5.10;2.33;;;6.50;99.90;;;;;;5076362;28;20052;-75
2022/02/04 10:20:33;;;;;;;7.03;2.78;;;6.60;99.90;;;;;;5075660;28;20125;-76
2022/02/04 10:23:00;;;;;;;5.10;2.40;;;6.70;99.90;;;;;;5075611;28;20132;-74
2022/02/04 10:25:32;;;;;;;4.82;2.20;;;6.70;99.90;;;;;;5075273;28;20127;-74
2022/02/04 10:28:03;;;;;;;5.22;2.17;;;6.70;99.90;;;;;;5074970;28;20063;-74
2022/02/04 10:30:32;;;;;;;6.43;2.50;;;6.70;99.90;;;;;;5075498;28;20052;-75
2022/02/04 10:33:00;;;;;;;5.78;2.25;;;6.60;99.90;;;;;;5075788;28;20408;-74
2022/02/04 10:35:32;;;;;;;6.93;2.58;;;6.70;99.90;;;;;;5075611;28;20049;-78
2022/02/04 10:38:13;;;;;;;6.22;3.10;;;6.70;99.90;;;;;;5074775;28;20110;-75
2022/02/04 10:40:52;;;;;;;7.82;2.47;;;6.80;99.90;;;;;;5075304;28;20139;-75
2022/02/04 10:43:37;;;;;;;5.63;2.35;;;6.80;99.90;;;;;;5076231;28;20131;-75
2022/02/04 10:46:14;;;;;;;4.93;2.33;;;6.80;99.90;;;;;;5076768;28;20087;-76
2022/02/04 10:57:42;;;;;;;5.50;2.42;;;6.70;99.90;;;;;;5069405;28;20094;-74
2022/02/04 11:00:17;;;;;;;5.55;2.60;;;6.60;99.90;;;;;;5076770;28;20500;-76
2022/02/04 11:02:56;;;;;;;7.25;2.58;;;6.50;99.90;;;;;;5077035;28;20060;-77
2022/02/04 11:05:32;;;;;;;5.22;2.47;;;6.50;99.90;;;;;;5076071;28;20052;-79
2022/02/04 11:10:59;;;;;;;5.50;2.17;;;6.50;99.90;;;;;;5074361;28;20271;-74
2022/02/04 11:35:46;;;;;;;5.75;2.70;;;6.60;99.90;;;;;;5068859;28;20543;-76
2022/02/04 11:44:00;;;;;;;7.13;2.72;;;6.40;99.90;;;;;;5075673;28;20055;-77
2022/02/04 11:52:39;;;;;;;6.10;2.35;;;6.60;99.90;;;;;;5053459;28;20052;-77
2022/02/04 11:55:32;;;;;;;5.88;2.55;;;6.60;99.90;;;;;;5075182;28;20108;-75
2022/02/04 11:58:03;;;;;;;7.75;2.95;;;6.60;99.90;;;;;;5054735;28;20311;-76
2022/02/04 12:00:36;;;;;;;7.75;2.97;;;6.70;99.90;;;;;;5055911;28;20075;-78
2022/02/04 12:03:25;;;;;;;5.15;2.42;;;6.70;99.90;;;;;;5056309;28;20068;-77
2022/02/04 12:05:52;;;;;;;7.72;3.17;;;6.80;99.90;;;;;;5055523;28;20053;-77
2022/02/04 12:08:21;;;;;;;6.07;2.13;;;6.70;99.90;;;;;;5056800;28;20053;-78
2022/02/04 12:10:50;;;;;;;6.38;2.53;;;6.70;99.90;;;;;;5056122;28;20568;-76
2022/02/04 12:13:19;;;;;;;4.70;2.30;;;6.90;99.90;;;;;;5055394;28;20080;-78
2022/02/04 12:15:49;;;;;;;6.22;2.38;;;6.80;99.90;;;;;;5054960;28;20512;-75
2022/02/04 12:18:18;;;;;;;5.15;2.15;;;6.80;99.90;;;;;;5055454;28;20393;-75
2022/02/04 12:21:03;;;;;;;6.43;2.67;;;6.80;99.90;;;;;;5055095;28;20049;-75
2022/02/04 12:23:58;;;;;;;8.45;2.47;;;6.80;99.90;;;;;;5055250;28;20135;-76
2022/02/04 12:26:33;;;;;;;3.45;1.55;;;6.90;99.90;;;;;;5056215;28;20049;-78
2022/02/04 12:29:03;;;;;;;3.80;1.48;;;6.80;99.90;;;;;;5056408;28;20080;-77
2022/02/04 12:31:33;;;;;;;5.30;2.00;;;6.70;99.90;;;;;;5056737;28;20049;-78
2022/02/04 12:34:10;;;;;;;5.13;2.20;;;6.60;99.90;;;;;;5057117;28;20428;-83
2022/02/04 12:36:40;;;;;;;6.25;2.63;;;6.70;99.90;;;;;;5056937;28;20420;-77
2022/02/04 12:39:11;;;;;;;5.88;2.58;;;6.70;99.90;;;;;;5057190;28;20136;-81
2022/02/04 12:41:39;;;;;;;6.25;2.25;;;6.70;99.90;;;;;;5056288;28;20053;-78
2022/02/04 12:44:10;;;;;;;3.45;1.77;;;6.70;99.90;;;;;;5057189;28;20128;-77
2022/02/04 12:46:41;;;;;;;5.20;2.05;;;6.60;99.90;;;;;;5056469;28;20144;-80
2022/02/04 12:49:10;;;;;;;4.68;1.90;;;6.60;99.90;;;;;;5057064;28;20080;-78
2022/02/04 12:51:48;;;;;;;5.57;2.20;;;6.60;99.90;;;;;;5055938;28;20133;-77
2022/02/04 12:54:27;;;;;;;5.75;2.28;;;6.60;99.90;;;;;;5056532;28;20520;-76
2022/02/04 12:59:59;;;;;;;5.95;2.40;;;6.50;99.90;;;;;;5051917;28;20049;-78
2022/02/04 13:08:07;;;;;;;4.80;2.13;;;6.40;99.90;;;;;;5059404;28;20055;-78
2022/02/04 13:10:33;;;;;;;4.97;2.22;;;6.40;99.90;;;;;;5059221;28;20053;-77
2022/02/04 13:13:02;;;;;;;4.45;1.90;;;6.40;99.90;;;;;;5059394;28;20158;-78
2022/02/04 13:15:32;;;;;;;5.15;2.25;;;6.40;99.90;;;;;;5058851;28;20080;-80
2022/02/04 13:18:04;;;;;;;4.78;2.08;;;6.40;99.90;;;;;;5058945;28;20045;-77
2022/02/04 13:20:31;;;;;;;5.18;1.90;;;6.40;99.90;;;;;;5059260;28;20073;-76
2022/02/04 13:23:04;;;;;;;4.65;1.50;;;6.40;99.90;;;;;;5059810;28;20080;-79
2022/02/04 13:25:33;;;;;;;3.25;1.40;;;6.50;99.90;;;;;;5059273;28;20125;-78
2022/02/04 13:28:02;;;;;;;2.65;1.05;;;6.60;99.90;;;;;;5061336;28;20083;-78
2022/02/04 13:30:32;;;;;;;2.63;1.05;;;6.70;99.90;;;;;;5059047;28;20079;-79
2022/02/04 13:33:01;;;;;;;5.43;1.30;;;6.70;99.90;;;;;;5060492;28;20053;-77
2022/02/04 13:35:36;;;;;;;3.00;1.10;;;6.70;99.90;;;;;;5059407;28;20057;-78
2022/02/04 13:38:14;;;;;;;2.20;1.17;;;6.70;99.90;;;;;;5059002;28;20092;-76
2022/02/04 13:40:55;;;;;;;2.03;1.10;;;6.80;99.90;;;;;;5058609;28;20049;-76
2022/02/04 13:43:26;;;;;;;1.88;1.00;;;6.80;99.90;;;;;;5059244;28;20045;-77
2022/02/04 13:45:59;;;;;;;2.22;1.08;;;6.80;99.90;;;;;;5058869;28;20055;-77
2022/02/04 13:48:51;;;;;;;2.92;1.00;;;6.80;99.90;;;;;;5058281;28;20063;-77
2022/02/04 13:51:26;;;;;;;3.42;1.20;;;6.80;99.90;;;;;;5058373;28;20087;-82
2022/02/04 13:54:22;;;;;;;2.03;1.00;;;6.80;99.90;;;;;;5058497;28;20045;-78
2022/02/04 13:56:57;;;;;;;2.58;0.95;;;6.80;99.90;;;;;;5058416;28;20570;-78
2022/02/04 13:59:38;;;;;;;2.33;1.10;;;6.70;99.90;;;;;;5059887;28;20060;-77
2022/02/04 14:02:13;;;;;;;4.72;1.42;;;6.70;99.90;;;;;;5060757;28;20084;-80
2022/02/04 14:04:55;;;;;;;3.65;1.30;;;6.70;99.90;;;;;;5059286;28;20057;-80
2022/02/04 14:07:33;;;;;;;1.30;0.60;;;6.70;99.90;;;;;;5060465;28;20081;-76
2022/02/04 14:10:08;;;;;;;2.50;1.13;;;6.80;99.90;;;;;;5058303;28;20049;-79
2022/02/04 14:12:35;;;;;;;2.63;1.17;;;6.80;99.90;;;;;;5058731;28;20045;-77
2022/02/04 14:15:02;;;;;;;1.95;1.15;;;6.80;99.90;;;;;;5058543;28;20621;-77
2022/02/04 14:17:31;;;;;;;2.25;0.80;;;6.70;99.90;;;;;;5058338;28;20083;-77
2022/02/04 14:19:59;;;;;;;3.58;0.95;;;6.80;99.90;;;;;;5058304;28;20049;-78
2022/02/04 14:22:27;;;;;;;2.90;1.17;;;6.80;99.90;;;;;;5058006;28;20056;-79
2022/02/04 14:25:01;;;;;;;3.42;1.35;;;6.90;99.90;;;;;;5058974;28;20051;-77
2022/02/04 14:27:28;;;;;;;2.45;0.88;;;7.10;99.90;;;;;;5059579;28;20065;-76
2022/02/04 14:30:01;;;;;;;2.25;0.90;;;7.20;99.90;;;;;;5058800;28;20073;-76
2022/02/04 14:32:38;;;;;;;4.38;1.77;;;7.20;99.90;;;;;;5059286;28;20052;-76
2022/02/04 14:35:20;;;;;;;0.95;0.70;;;7.10;99.90;;;;;;5057928;28;20542;-77
2022/02/04 14:51:56;;;;;;;1.50;0.80;;;6.80;99.90;;;;;;5059923;28;20062;-78
2022/02/04 14:54:44;;;;;;;2.63;0.75;;;6.80;99.90;;;;;;5057224;28;20083;-79
2022/02/04 15:02:45;;;;;;;1.33;0.70;;;6.90;99.90;;;;;;5057122;28;20067;-76
2022/02/04 15:05:16;;;;;;;2.33;0.80;;;6.80;99.90;;;;;;5056589;28;20053;-78
2022/02/04 15:07:46;;;;;;;1.48;0.60;;;6.90;99.90;;;;;;5056612;28;20048;-77
2022/02/04 15:10:25;;;;;;;1.15;0.70;;;6.90;99.90;;;;;;5057021;28;20139;-77
2022/02/04 15:12:52;;;;;;;3.30;1.20;;;6.80;99.90;;;;;;5056994;28;20140;-78
2022/02/04 15:15:19;;;;;;;3.00;1.20;;;6.70;99.90;;;;;;5055905;28;20133;-77
2022/02/04 15:17:46;;;;;;;1.17;0.75;;;6.70;99.90;;;;;;5056900;28;20053;-78
2022/02/04 15:20:13;;;;;;;3.65;1.25;;;6.80;99.90;;;;;;5056775;28;20057;-79
2022/02/04 15:22:40;;;;;;;2.20;1.00;;;6.80;99.90;;;;;;5058028;28;20080;-74
2022/02/04 15:25:16;;;;;;;2.33;0.88;;;6.70;99.90;;;;;;5055669;28;20088;-74
2022/02/04 15:27:51;;;;;;;2.72;1.00;;;6.70;99.90;;;;;;5056824;28;20060;-75
2022/02/04 15:30:24;;;;;;;1.92;0.85;;;6.80;99.90;;;;;;5055919;28;20055;-75
2022/02/04 15:32:51;;;;;;;2.40;1.00;;;6.80;99.90;;;;;;5056353;28;20080;-74
2022/02/04 15:35:18;;;;;;;4.40;1.10;;;6.90;99.90;;;;;;5055521;28;20049;-75
2022/02/04 15:37:45;;;;;;;2.92;1.10;;;6.90;99.90;;;;;;5054832;28;20130;-75
2022/02/04 15:40:14;;;;;;;2.10;1.10;;;6.90;99.90;;;;;;5055277;28;20128;-75
2022/02/04 15:42:44;;;;;;;3.08;1.30;;;6.90;99.90;;;;;;5055628;28;20049;-75
2022/02/04 15:45:28;;;;;;;3.17;1.25;;;6.90;99.90;;;;;;5054925;28;20053;-75
2022/02/04 15:48:01;;;;;;;3.67;1.30;;;6.90;99.90;;;;;;5054232;28;20139;-75
2022/02/04 15:50:37;;;;;;;2.00;0.98;;;6.90;99.90;;;;;;5053811;28;20052;-75
2022/02/04 15:58:59;;;;;;;5.28;1.35;;;6.90;99.90;;;;;;5053616;28;20444;-75
2022/02/04 16:01:34;;;;;;;2.30;1.00;;;6.90;99.90;;;;;;5054021;28;20084;-75
2022/02/04 16:04:20;;;;;;;1.80;0.90;;;6.90;99.90;;;;;;5054047;28;20497;-75
2022/02/04 16:06:47;;;;;;;2.58;1.05;;;6.90;99.90;;;;;;5053662;28;20874;-76
2022/02/04 16:09:15;;;;;;;4.95;1.10;;;6.90;99.90;;;;;;5053674;28;20114;-76
2022/02/04 16:11:54;;;;;;;2.88;0.82;;;7.00;99.90;;;;;;5135733;22;20313;-71
2022/02/04 16:14:26;;;;;;;2.70;1.08;;;7.00;99.90;;;;;;5031574;28;20172;-70
2022/02/04 16:16:57;;;;;;;3.15;1.15;;;6.90;99.90;;;;;;5031395;28;20057;-70
2022/02/04 16:19:35;;;;;;;2.03;1.13;;;6.90;99.90;;;;;;5031690;28;20076;-69
2022/02/04 16:22:14;;;;;;;3.17;0.85;;;7.00;99.90;;;;;;5031734;28;20053;-71
2022/02/04 16:24:52;;;;;;;2.13;1.10;;;6.90;99.90;;;;;;5031239;28;20076;-71
2022/02/04 16:30:07;;;;;;;1.65;0.70;;;7.00;99.90;;;;;;5031451;28;20052;-70
2022/02/04 16:32:35;;;;;;;1.50;0.70;;;6.90;99.90;;;;;;5031329;28;20153;-70
2022/02/04 16:35:04;;;;;;;1.88;0.88;;;7.00;99.90;;;;;;5031333;28;20136;-69
2022/02/04 16:37:33;;;;;;;2.03;0.80;;;6.90;99.90;;;;;;5034559;28;20421;-71
2022/02/04 16:40:09;;;;;;;2.53;0.90;;;7.00;99.90;;;;;;5035108;28;20057;-70
2022/02/04 16:42:38;;;;;;;1.98;0.70;;;7.00;99.90;;;;;;5035202;28;20060;-70
2022/02/04 16:45:06;;;;;;;2.53;0.90;;;7.00;99.90;;;;;;5034953;28;20050;-70
2022/02/04 16:47:33;;;;;;;1.92;0.75;;;7.00;99.90;;;;;;5035069;28;20136;-70
2022/02/04 16:50:01;;;;;;;7.80;1.00;;;6.90;99.90;;;;;;5034954;28;20140;-70
2022/02/04 16:52:29;;;;;;;1.33;0.70;;;6.90;99.90;;;;;;5034900;28;20049;-70
2022/02/04 16:54:56;;;;;;;3.17;1.17;;;6.90;99.90;;;;;;5034895;28;20144;-70
2022/02/04 16:57:25;;;;;;;3.22;1.10;;;6.90;99.90;;;;;;5034967;28;20132;-70
2022/02/04 16:59:56;;;;;;;3.17;1.42;;;6.90;99.90;;;;;;5034909;28;20395;-70
2022/02/04 17:02:23;;;;;;;2.67;1.10;;;6.90;99.90;;;;;;5035084;28;20053;-70
2022/02/04 17:04:51;;;;;;;4.22;1.20;;;6.90;99.90;;;;;;5034698;28;20573;-70
2022/02/04 17:07:21;;;;;;;2.92;1.02;;;6.80;99.90;;;;;;5034998;28;20068;-70
2022/02/04 17:09:50;;;;;;;2.25;0.90;;;6.80;99.90;;;;;;5034527;28;20444;-70
2022/02/04 17:12:26;;;;;;;3.72;1.00;;;6.80;99.90;;;;;;5034741;28;20067;-70
2022/02/04 17:14:55;;;;;;;2.67;1.08;;;6.80;99.90;;;;;;5034660;28;20053;-70
2022/02/04 17:17:24;;;;;;;1.52;0.82;;;6.80;99.90;;;;;;5034425;28;20492;-69
2022/02/04 17:20:04;;;;;;;2.00;0.75;;;6.80;99.90;;;;;;5034939;28;20057;-70
2022/02/04 17:22:32;;;;;;;4.20;1.30;;;6.80;99.90;;;;;;5034857;28;20349;-69
2022/02/04 17:25:01;;;;;;;3.20;1.15;;;6.70;99.90;;;;;;5034139;28;20501;-70
2022/02/04 17:27:28;;;;;;;4.82;1.33;;;6.70;99.90;;;;;;5034615;28;20049;-69
2022/02/04 17:29:57;;;;;;;4.13;1.48;;;6.60;99.90;;;;;;5034463;28;20466;-70
2022/02/04 17:32:25;;;;;;;3.78;1.35;;;6.60;99.90;;;;;;5034195;28;20494;-70
2022/02/04 17:34:52;;;;;;;1.88;0.90;;;6.60;99.90;;;;;;5034438;28;20053;-69
2022/02/04 17:37:19;;;;;;;3.13;1.00;;;6.60;99.90;;;;;;5034189;28;20493;-70
2022/02/04 17:39:47;;;;;;;4.53;1.50;;;6.50;99.90;;;;;;5034347;28;20081;-69